PWSweather.com
Personal Weather Stations
Station Observations
MADWEATHER
MadeiraPT

MadeiraPT

Lat: 32.735, Lon: -17.194

Elevation: 1063

Station Type: Davis VantagePro2

Latest ConditionsUpdated 3:00:01 PM GMT Friday, Feb 24, 2017
Currently Today's Max Today's Min Today's Average
Temperature 62.1°F16.7°C 63.0°F17.2°C 54.8°F12.7°C 59.1°F15.1°C
Dew Point 52.6°F11.4°C 53.9°F12.2°C 47.6°F8.7°C 50.4°F10.2°C
Winds 8.2 mph WSW13.2 kmh WSW 8.2 mph WSW13.2 kmh WSW - 5.0 mph 8.0 kmh
Wind Gusts 10.0 mph16.1 kmh 12.0 mph19.3 kmh - -
Humidity 71% 78% 67% 73%
Pressure 30.18 in1022.0 mb 30.21 in1023.0 mb 30.14 in1020.7 mb -
Hour Temp Dew Point Humidity Winds Wind Gusts Pressure Precip Precip Rate Daily Precip Total
03:00 PM 62.1°F16.7°C 52.6°F11.4°C 71% 8.2 mph WSW13.2 kmh WSW 10.0 mph16.1 kmh 30.18 in1022.0 mb - 0.00 in0.0 mm 0.00 in0.0 mm
02:50 PM 62.5°F16.9°C 53.0°F11.7°C 71% 6.5 mph WSW10.5 kmh WSW 10.0 mph16.1 kmh 30.19 in1022.4 mb - 0.00 in0.0 mm 0.00 in0.0 mm
02:40 PM 62.6°F17.0°C 53.1°F11.7°C 71% 7.3 mph WSW11.7 kmh WSW 10.0 mph16.1 kmh 30.19 in1022.4 mb - 0.00 in0.0 mm 0.00 in0.0 mm
02:30 PM 62.4°F16.9°C 53.7°F12.1°C 73% 7.3 mph WSW11.7 kmh WSW 10.0 mph16.1 kmh 30.18 in1022.0 mb - 0.00 in0.0 mm 0.00 in0.0 mm
02:10 PM 62.2°F16.8°C 53.4°F11.9°C 73% 5.4 mph WSW8.7 kmh WSW 10.0 mph16.1 kmh 30.19 in1022.4 mb - 0.00 in0.0 mm 0.00 in0.0 mm
02:00 PM 62.0°F16.7°C 53.6°F12.0°C 74% 6.3 mph WSW10.1 kmh WSW 9.0 mph14.5 kmh 30.19 in1022.4 mb - 0.00 in0.0 mm 0.00 in0.0 mm
01:50 PM 62.6°F17.0°C 53.9°F12.2°C 73% 7.0 mph WSW11.3 kmh WSW 7.0 mph11.3 kmh 30.19 in1022.4 mb - 0.00 in0.0 mm 0.00 in0.0 mm
01:40 PM 62.0°F16.7°C 52.1°F11.2°C 70% 5.9 mph WSW9.5 kmh WSW 7.0 mph11.3 kmh 30.20 in1022.7 mb - 0.00 in0.0 mm 0.00 in0.0 mm
01:30 PM 62.6°F17.0°C 53.1°F11.7°C 71% 7.1 mph WSW11.4 kmh WSW 9.0 mph14.5 kmh 30.20 in1022.7 mb - 0.00 in0.0 mm 0.00 in0.0 mm
01:20 PM 63.0°F17.2°C 52.2°F11.2°C 68% 6.6 mph W10.6 kmh W 9.0 mph14.5 kmh 30.20 in1022.7 mb - 0.00 in0.0 mm 0.00 in0.0 mm
01:10 PM 61.7°F16.5°C 52.6°F11.4°C 72% 6.1 mph WNW9.8 kmh WNW 8.0 mph12.9 kmh 30.20 in1022.7 mb - 0.00 in0.0 mm 0.00 in0.0 mm
01:00 PM 61.6°F16.4°C 51.4°F10.8°C 69% 4.3 mph NW6.9 kmh NW 5.0 mph8.0 kmh 30.20 in1022.7 mb - 0.00 in0.0 mm 0.00 in0.0 mm
12:50 PM 61.4°F16.3°C 50.7°F10.4°C 68% 2.5 mph NW4.0 kmh NW 5.0 mph8.0 kmh 30.21 in1023.0 mb - 0.00 in0.0 mm 0.00 in0.0 mm
12:40 PM 61.1°F16.2°C 50.8°F10.4°C 69% 3.8 mph NW6.1 kmh NW 7.0 mph11.3 kmh 30.21 in1023.0 mb - 0.00 in0.0 mm 0.00 in0.0 mm
12:30 PM 61.8°F16.6°C 50.7°F10.4°C 67% 5.2 mph NW8.4 kmh NW 8.0 mph12.9 kmh 30.21 in1023.0 mb - 0.00 in0.0 mm 0.00 in0.0 mm
12:20 PM 61.6°F16.4°C 51.0°F10.6°C 68% 6.0 mph NW9.7 kmh NW 7.0 mph11.3 kmh 30.20 in1022.7 mb - 0.00 in0.0 mm 0.00 in0.0 mm
12:10 PM 62.0°F16.7°C 51.3°F10.7°C 68% 4.6 mph NW7.4 kmh NW 6.0 mph9.7 kmh 30.21 in1023.0 mb - 0.00 in0.0 mm 0.00 in0.0 mm
12:00 PM 61.3°F16.3°C 51.1°F10.6°C 69% 3.8 mph NW6.1 kmh NW 7.0 mph11.3 kmh 30.21 in1023.0 mb - 0.00 in0.0 mm 0.00 in0.0 mm
11:50 AM 62.0°F16.7°C 51.3°F10.7°C 68% 5.5 mph NW8.9 kmh NW 8.0 mph12.9 kmh 30.21 in1023.0 mb - 0.00 in0.0 mm 0.00 in0.0 mm
11:40 AM 62.1°F16.7°C 51.8°F11.0°C 69% 6.6 mph NW10.6 kmh NW 10.0 mph16.1 kmh 30.21 in1023.0 mb - 0.00 in0.0 mm 0.00 in0.0 mm
11:30 AM 61.9°F16.6°C 51.2°F10.7°C 68% 3.2 mph N5.1 kmh N 7.0 mph11.3 kmh 30.21 in1023.0 mb - 0.00 in0.0 mm 0.00 in0.0 mm
11:20 AM 61.9°F16.6°C 50.8°F10.4°C 67% 5.6 mph N9.0 kmh N 6.0 mph9.7 kmh 30.21 in1023.0 mb - 0.00 in0.0 mm 0.00 in0.0 mm
11:10 AM 61.5°F16.4°C 51.2°F10.7°C 69% 3.0 mph NE4.8 kmh NE 6.0 mph9.7 kmh 30.21 in1023.0 mb - 0.00 in0.0 mm 0.00 in0.0 mm
03:10 AM 55.5°F13.1°C 48.8°F9.3°C 78% 4.4 mph NE7.1 kmh NE 7.0 mph11.3 kmh 30.14 in1020.7 mb - 0.00 in0.0 mm 0.00 in0.0 mm
03:00 AM 55.3°F12.9°C 48.6°F9.2°C 78% 4.0 mph NE6.4 kmh NE 4.0 mph6.4 kmh 30.14 in1020.7 mb - 0.00 in0.0 mm 0.00 in0.0 mm
02:50 AM 55.5°F13.1°C 48.4°F9.1°C 77% 3.4 mph NE5.5 kmh NE 4.0 mph6.4 kmh 30.14 in1020.7 mb - 0.00 in0.0 mm 0.00 in0.0 mm
02:40 AM 56.0°F13.3°C 48.9°F9.4°C 77% 3.5 mph NE5.6 kmh NE 5.0 mph8.0 kmh 30.14 in1020.7 mb - 0.00 in0.0 mm 0.00 in0.0 mm
02:30 AM 56.2°F13.4°C 49.1°F9.5°C 77% 4.3 mph NE6.9 kmh NE 6.0 mph9.7 kmh 30.15 in1021.0 mb - 0.00 in0.0 mm 0.00 in0.0 mm
02:20 AM 56.1°F13.4°C 49.0°F9.4°C 77% 5.2 mph NE8.4 kmh NE 9.0 mph14.5 kmh 30.15 in1021.0 mb - 0.00 in0.0 mm 0.00 in0.0 mm
02:10 AM 56.2°F13.4°C 48.7°F9.3°C 76% 4.4 mph NE7.1 kmh NE 6.0 mph9.7 kmh 30.15 in1021.0 mb - 0.00 in0.0 mm 0.00 in0.0 mm
02:00 AM 56.2°F13.4°C 48.7°F9.3°C 76% 5.3 mph NE8.5 kmh NE 7.0 mph11.3 kmh 30.15 in1021.0 mb - 0.00 in0.0 mm 0.00 in0.0 mm
01:50 AM 56.2°F13.4°C 48.7°F9.3°C 76% 2.3 mph NE3.7 kmh NE 4.0 mph6.4 kmh 30.15 in1021.0 mb - 0.00 in0.0 mm 0.00 in0.0 mm
01:40 AM 56.3°F13.5°C 48.8°F9.3°C 76% 1.7 mph NE2.7 kmh NE 3.0 mph4.8 kmh 30.15 in1021.0 mb - 0.00 in0.0 mm 0.00 in0.0 mm
01:30 AM 56.2°F13.4°C 48.7°F9.3°C 76% 4.6 mph NE7.4 kmh NE 6.0 mph9.7 kmh 30.16 in1021.3 mb - 0.00 in0.0 mm 0.00 in0.0 mm
01:20 AM 56.1°F13.4°C 48.6°F9.2°C 76% 2.3 mph NE3.7 kmh NE 7.0 mph11.3 kmh 30.16 in1021.3 mb - 0.00 in0.0 mm 0.00 in0.0 mm
01:10 AM 55.9°F13.3°C 48.8°F9.3°C 77% 7.7 mph NE12.4 kmh NE 12.0 mph19.3 kmh 30.16 in1021.3 mb - 0.00 in0.0 mm 0.00 in0.0 mm
01:00 AM 55.6°F13.1°C 48.9°F9.4°C 78% 8.0 mph NE12.9 kmh NE 12.0 mph19.3 kmh 30.16 in1021.3 mb - 0.00 in0.0 mm 0.00 in0.0 mm
12:50 AM 55.2°F12.9°C 48.4°F9.1°C 78% 6.3 mph NE10.1 kmh NE 10.0 mph16.1 kmh 30.16 in1021.3 mb - 0.00 in0.0 mm 0.00 in0.0 mm
12:40 AM 54.8°F12.7°C 47.7°F8.7°C 77% 3.5 mph NE5.6 kmh NE 4.0 mph6.4 kmh 30.16 in1021.3 mb - 0.00 in0.0 mm 0.00 in0.0 mm
12:30 AM 55.0°F12.8°C 47.6°F8.7°C 76% 3.5 mph NE5.6 kmh NE 5.0 mph8.0 kmh 30.16 in1021.3 mb - 0.00 in0.0 mm 0.00 in0.0 mm
12:20 AM 55.4°F13.0°C 47.6°F8.7°C 75% 3.3 mph NE5.3 kmh NE 5.0 mph8.0 kmh 30.16 in1021.3 mb - 0.00 in0.0 mm 0.00 in0.0 mm
12:10 AM 55.4°F13.0°C 48.0°F8.9°C 76% 4.4 mph NE7.1 kmh NE 6.0 mph9.7 kmh 30.16 in1021.3 mb - 0.00 in0.0 mm 0.00 in0.0 mm
12:00 AM 55.6°F13.1°C 48.2°F9.0°C 76% 3.7 mph NE6.0 kmh NE 6.0 mph9.7 kmh 30.16 in1021.3 mb - 0.00 in0.0 mm 0.00 in0.0 mm